createdAt,value
2018-05-21T00:00:10.310Z,0.00
2018-05-21T00:01:10.354Z,0.00
2018-05-21T00:02:10.355Z,0.00
2018-05-21T00:03:10.349Z,0.00
2018-05-21T00:04:10.483Z,0.00
2018-05-21T00:05:10.418Z,0.00
2018-05-21T00:06:10.422Z,0.00
2018-05-21T00:07:10.361Z,0.00
2018-05-21T00:08:10.424Z,0.00
2018-05-21T00:09:10.422Z,0.00
2018-05-21T00:10:10.424Z,0.00
2018-05-21T00:11:10.391Z,0.00
2018-05-21T00:12:10.389Z,0.00
2018-05-21T00:13:10.386Z,0.00
2018-05-21T00:14:10.345Z,0.00
2018-05-21T00:15:10.448Z,0.00
2018-05-21T00:16:10.388Z,0.00
2018-05-21T00:17:10.457Z,0.00
2018-05-21T00:18:10.426Z,0.00
2018-05-21T00:19:10.471Z,0.00
2018-05-21T00:20:10.445Z,0.00
2018-05-21T00:21:10.369Z,0.00
2018-05-21T00:22:10.420Z,0.00
2018-05-21T00:23:10.306Z,0.00
2018-05-21T00:24:10.360Z,0.00
2018-05-21T00:25:10.362Z,0.00
2018-05-21T00:26:10.422Z,0.00
2018-05-21T00:27:10.333Z,0.00
2018-05-21T00:28:10.365Z,0.00
2018-05-21T00:29:10.396Z,0.00
2018-05-21T00:30:10.390Z,0.00
2018-05-21T00:31:10.405Z,0.00
2018-05-21T00:32:10.469Z,0.00
2018-05-21T00:33:10.391Z,0.00
2018-05-21T00:34:10.452Z,0.00
2018-05-21T00:35:10.409Z,0.00
2018-05-21T00:36:10.379Z,0.00
2018-05-21T00:37:10.443Z,0.00
2018-05-21T00:38:10.420Z,0.00
2018-05-21T00:39:10.467Z,0.00
2018-05-21T00:40:10.363Z,0.00
2018-05-21T00:41:10.470Z,0.00
2018-05-21T00:42:10.468Z,0.00
2018-05-21T00:43:10.467Z,0.00
2018-05-21T00:44:10.446Z,0.00
2018-05-21T00:45:10.420Z,0.00
2018-05-21T00:46:10.419Z,0.00
2018-05-21T00:47:10.422Z,0.00
2018-05-21T00:48:10.515Z,0.00
2018-05-21T00:49:10.425Z,0.00
2018-05-21T00:50:10.488Z,0.00
2018-05-21T00:51:10.448Z,0.00
2018-05-21T00:52:10.448Z,0.00
2018-05-21T00:53:10.451Z,0.00
2018-05-21T00:54:10.387Z,0.00
2018-05-21T00:55:10.453Z,0.00
2018-05-21T00:56:10.451Z,0.00
2018-05-21T00:57:10.425Z,0.00
2018-05-21T00:58:10.391Z,0.00
2018-05-21T00:59:10.457Z,0.00
2018-05-21T01:00:10.392Z,0.00
2018-05-21T01:01:10.458Z,0.00
2018-05-21T01:02:10.462Z,0.00
2018-05-21T01:03:10.466Z,0.00
2018-05-21T01:04:10.457Z,0.00
2018-05-21T01:05:10.458Z,0.00
2018-05-21T01:06:10.397Z,0.00
2018-05-21T01:07:10.459Z,0.00
2018-05-21T01:08:10.462Z,0.00
2018-05-21T01:09:10.466Z,0.00
2018-05-21T01:10:10.431Z,0.00
2018-05-21T01:11:10.485Z,0.00
2018-05-21T01:12:10.503Z,0.00
2018-05-21T01:13:10.440Z,0.00
2018-05-21T01:14:10.426Z,0.00
2018-05-21T01:15:10.364Z,0.00
2018-05-21T01:16:10.453Z,0.00
2018-05-21T01:17:10.441Z,0.00
2018-05-21T01:18:10.411Z,0.00
2018-05-21T01:19:10.392Z,0.00
2018-05-21T01:20:10.435Z,0.00
2018-05-21T01:21:10.470Z,0.00
2018-05-21T01:22:10.469Z,0.00
2018-05-21T01:23:10.408Z,0.00
2018-05-21T01:24:10.471Z,0.00
2018-05-21T01:25:10.409Z,0.00
2018-05-21T01:26:10.439Z,0.00
2018-05-21T01:27:10.412Z,0.00
2018-05-21T01:28:10.418Z,0.00
2018-05-21T01:29:10.476Z,0.00
2018-05-21T01:30:10.480Z,0.00
2018-05-21T01:31:10.415Z,0.00
2018-05-21T01:32:10.449Z,0.00
2018-05-21T01:33:10.436Z,0.00
2018-05-21T01:34:10.477Z,0.00
2018-05-21T01:35:10.431Z,0.00
2018-05-21T01:36:10.498Z,0.00
2018-05-21T01:37:10.403Z,0.00
2018-05-21T01:38:10.479Z,0.00
2018-05-21T01:39:10.443Z,0.00
2018-05-21T01:40:10.413Z,0.00
2018-05-21T01:41:10.459Z,0.00
2018-05-21T01:42:10.414Z,0.00
2018-05-21T01:43:10.486Z,0.00
2018-05-21T01:44:10.420Z,0.00
2018-05-21T01:45:10.369Z,0.00
2018-05-21T01:46:10.426Z,0.00
2018-05-21T01:47:10.499Z,0.00
2018-05-21T01:48:10.422Z,0.00
2018-05-21T01:49:10.494Z,0.00
2018-05-21T01:50:10.509Z,0.00
2018-05-21T01:51:10.424Z,0.00
2018-05-21T01:52:10.395Z,0.00
2018-05-21T01:53:10.491Z,0.00
2018-05-21T01:54:10.512Z,0.00
2018-05-21T01:55:10.454Z,0.00
2018-05-21T01:56:10.491Z,0.00
2018-05-21T01:57:10.410Z,0.00
2018-05-21T01:58:10.391Z,0.00
2018-05-21T01:59:10.398Z,0.00
2018-05-21T02:00:10.492Z,0.00
2018-05-21T02:01:10.473Z,0.00
2018-05-21T02:02:10.417Z,0.00
2018-05-21T02:03:10.457Z,0.00
2018-05-21T02:04:10.498Z,0.00
2018-05-21T02:05:10.530Z,0.00
2018-05-21T02:06:10.423Z,0.00
2018-05-21T02:07:10.524Z,0.00
2018-05-21T02:08:10.414Z,0.00
2018-05-21T02:09:10.400Z,0.00
2018-05-21T02:10:10.478Z,0.00
2018-05-21T02:11:10.476Z,0.00
2018-05-21T02:12:10.481Z,0.00
2018-05-21T02:13:10.487Z,0.00
2018-05-21T02:14:10.512Z,0.00
2018-05-21T02:15:10.543Z,0.00
2018-05-21T02:16:10.427Z,0.00
2018-05-21T02:17:10.411Z,0.00
2018-05-21T02:18:10.508Z,0.00
2018-05-21T02:19:10.513Z,0.00
2018-05-21T02:20:10.488Z,0.00
2018-05-21T02:21:10.482Z,0.00
2018-05-21T02:22:10.513Z,0.00
2018-05-21T02:23:10.449Z,0.00
2018-05-21T02:24:10.507Z,0.00
2018-05-21T02:25:10.517Z,0.00
2018-05-21T02:26:10.444Z,0.00
2018-05-21T02:27:10.511Z,0.00
2018-05-21T02:28:10.519Z,0.00
2018-05-21T02:29:10.517Z,0.00
2018-05-21T02:30:10.516Z,0.00
2018-05-21T02:31:10.455Z,0.00
2018-05-21T02:32:10.484Z,0.00
2018-05-21T02:33:10.455Z,0.00
2018-05-21T02:34:10.519Z,0.00
2018-05-21T02:35:10.464Z,0.00
2018-05-21T02:36:10.517Z,0.00
2018-05-21T02:37:10.454Z,0.00
2018-05-21T02:38:10.454Z,0.00
2018-05-21T02:39:10.522Z,0.00
2018-05-21T02:40:10.514Z,0.00
2018-05-21T02:41:10.538Z,0.00
2018-05-21T02:42:10.503Z,0.00
2018-05-21T02:43:10.547Z,0.00
2018-05-21T02:44:10.502Z,0.00
2018-05-21T02:45:10.563Z,0.00
2018-05-21T02:46:10.422Z,0.00
2018-05-21T02:47:10.525Z,0.00
2018-05-21T02:48:10.450Z,0.00
2018-05-21T02:49:10.492Z,0.00
2018-05-21T02:50:10.484Z,0.00
2018-05-21T02:51:10.484Z,0.00
2018-05-21T02:52:10.524Z,0.00
2018-05-21T02:53:10.452Z,0.00
2018-05-21T02:54:10.530Z,0.00
2018-05-21T02:55:10.548Z,0.00
2018-05-21T02:56:10.506Z,0.00
2018-05-21T02:57:10.435Z,0.00
2018-05-21T02:58:10.439Z,0.00
2018-05-21T02:59:10.440Z,0.00
2018-05-21T03:00:10.503Z,0.00
2018-05-21T03:01:10.491Z,0.00
2018-05-21T03:02:10.488Z,0.00
2018-05-21T03:03:10.535Z,0.00
2018-05-21T03:04:10.537Z,0.00
2018-05-21T03:05:10.535Z,0.00
2018-05-21T03:06:10.497Z,0.00
2018-05-21T03:07:10.437Z,0.00
2018-05-21T03:08:10.451Z,0.00
2018-05-21T03:09:10.505Z,0.00
2018-05-21T03:10:10.566Z,0.00
2018-05-21T03:11:10.588Z,0.00
2018-05-21T03:12:10.446Z,0.00
2018-05-21T03:13:10.559Z,0.00
2018-05-21T03:14:10.521Z,0.00
2018-05-21T03:15:10.558Z,0.00
2018-05-21T03:16:10.549Z,0.00
2018-05-21T03:17:10.563Z,0.00
2018-05-21T03:18:10.569Z,0.00
2018-05-21T03:19:10.548Z,0.00
2018-05-21T03:20:10.470Z,0.00
2018-05-21T03:21:10.590Z,0.00
2018-05-21T03:22:10.522Z,0.00
2018-05-21T03:23:10.501Z,0.00
2018-05-21T03:24:10.489Z,0.00
2018-05-21T03:25:10.549Z,0.00
2018-05-21T03:26:10.486Z,0.00
2018-05-21T03:27:10.551Z,0.00
2018-05-21T03:28:10.511Z,0.00
2018-05-21T03:29:10.580Z,0.00
2018-05-21T03:30:10.530Z,0.00
2018-05-21T03:31:10.569Z,0.00
2018-05-21T03:32:10.454Z,0.00
2018-05-21T03:33:10.525Z,0.00
2018-05-21T03:34:10.476Z,0.00
2018-05-21T03:35:10.460Z,1.00
2018-05-21T03:36:10.534Z,1.00
2018-05-21T03:37:10.595Z,1.00
2018-05-21T03:38:10.498Z,1.00
2018-05-21T03:39:10.514Z,1.00
2018-05-21T03:40:10.580Z,1.00
2018-05-21T03:41:10.555Z,1.00
2018-05-21T03:42:10.558Z,1.00
2018-05-21T03:43:10.537Z,1.00
2018-05-21T03:44:10.561Z,1.00
2018-05-21T03:45:10.606Z,1.00
2018-05-21T03:46:10.579Z,1.00
2018-05-21T03:47:10.538Z,1.00
2018-05-21T03:48:10.582Z,1.00
2018-05-21T03:49:10.525Z,1.00
2018-05-21T03:50:10.489Z,1.00
2018-05-21T03:51:10.565Z,2.00
2018-05-21T03:52:10.534Z,2.00
2018-05-21T03:53:10.563Z,2.00
2018-05-21T03:54:10.470Z,2.00
2018-05-21T03:55:10.534Z,2.00
2018-05-21T03:56:10.470Z,2.00
2018-05-21T03:57:10.566Z,2.00
2018-05-21T03:58:10.542Z,2.00
2018-05-21T03:59:10.603Z,2.00
2018-05-21T04:00:10.593Z,2.00
2018-05-21T04:01:10.526Z,2.00
2018-05-21T04:02:10.517Z,2.00
2018-05-21T04:03:10.431Z,2.00
2018-05-21T04:04:10.438Z,2.00
2018-05-21T04:05:10.475Z,3.00
2018-05-21T04:06:10.474Z,3.00
2018-05-21T04:07:10.473Z,3.00
2018-05-21T04:08:10.471Z,3.00
2018-05-21T04:09:10.524Z,3.00
2018-05-21T04:10:10.463Z,3.00
2018-05-21T04:11:10.589Z,3.00
2018-05-21T04:12:10.562Z,3.00
2018-05-21T04:13:10.598Z,3.00
2018-05-21T04:14:10.605Z,3.00
2018-05-21T04:15:10.583Z,3.00
2018-05-21T04:16:10.610Z,3.00
2018-05-21T04:17:10.541Z,3.00
2018-05-21T04:18:10.582Z,4.00
2018-05-21T04:19:10.606Z,4.00
2018-05-21T04:20:10.616Z,4.00
2018-05-21T04:21:10.485Z,4.00
2018-05-21T04:22:10.472Z,4.00
2018-05-21T04:23:10.577Z,4.00
2018-05-21T04:24:10.580Z,4.00
2018-05-21T04:25:10.576Z,4.00
2018-05-21T04:26:10.494Z,4.00
2018-05-21T04:27:10.587Z,4.00
2018-05-21T04:28:10.609Z,4.00
2018-05-21T04:29:10.489Z,4.00
2018-05-21T04:30:10.591Z,5.00
2018-05-21T04:31:10.587Z,5.00
2018-05-21T04:32:10.621Z,5.00
2018-05-21T04:33:10.494Z,5.00
2018-05-21T04:34:10.572Z,5.00
2018-05-21T04:35:10.620Z,5.00
2018-05-21T04:36:10.619Z,5.00
2018-05-21T04:37:10.495Z,5.00
2018-05-21T04:38:10.619Z,5.00
2018-05-21T04:39:10.635Z,5.00
2018-05-21T04:40:10.494Z,5.00
2018-05-21T04:41:10.554Z,6.00
2018-05-21T04:42:10.594Z,6.00
2018-05-21T04:43:10.559Z,6.00
2018-05-21T04:44:10.580Z,6.00
2018-05-21T04:45:10.602Z,6.00
2018-05-21T04:46:10.555Z,6.00
2018-05-21T04:47:10.508Z,6.00
2018-05-21T04:48:10.520Z,6.00
2018-05-21T04:49:10.575Z,6.00
2018-05-21T04:50:10.540Z,6.00
2018-05-21T04:51:10.603Z,6.00
2018-05-21T04:52:10.634Z,7.00
2018-05-21T04:53:10.696Z,7.00
2018-05-21T04:54:10.639Z,7.00
2018-05-21T04:55:10.570Z,7.00
2018-05-21T04:56:10.627Z,7.00
2018-05-21T04:57:10.578Z,7.00
2018-05-21T04:58:10.575Z,7.00
2018-05-21T04:59:10.631Z,7.00
2018-05-21T05:00:10.588Z,7.00
2018-05-21T05:01:10.586Z,7.00
2018-05-21T05:02:10.635Z,7.00
2018-05-21T05:03:10.570Z,8.00
2018-05-21T05:04:10.518Z,8.00
2018-05-21T05:05:10.647Z,8.00
2018-05-21T05:06:10.581Z,8.00
2018-05-21T05:07:10.668Z,8.00
2018-05-21T05:08:10.574Z,8.00
2018-05-21T05:09:10.588Z,8.00
2018-05-21T05:10:10.540Z,8.00
2018-05-21T05:11:10.544Z,8.00
2018-05-21T05:12:10.557Z,8.00
2018-05-21T05:13:10.614Z,8.00
2018-05-21T05:14:10.502Z,8.00
2018-05-21T05:15:10.489Z,9.00
2018-05-21T05:16:10.562Z,9.00
2018-05-21T05:17:10.559Z,9.00
2018-05-21T05:18:10.604Z,9.00
2018-05-21T05:19:10.606Z,9.00
2018-05-21T05:20:10.529Z,9.00
2018-05-21T05:21:10.670Z,9.00
2018-05-21T05:22:10.522Z,9.00
2018-05-21T05:23:10.567Z,9.00
2018-05-21T05:24:10.480Z,9.00
2018-05-21T05:25:10.633Z,9.00
2018-05-21T05:26:10.553Z,9.00
2018-05-21T05:27:10.526Z,10.00
2018-05-21T05:28:10.480Z,10.00
2018-05-21T05:29:10.560Z,10.00
2018-05-21T05:30:10.578Z,10.00
2018-05-21T05:31:10.510Z,10.00
2018-05-21T05:32:10.563Z,10.00
2018-05-21T05:33:10.631Z,10.00
2018-05-21T05:34:10.574Z,10.00
2018-05-21T05:35:10.566Z,10.00
2018-05-21T05:36:10.564Z,10.00
2018-05-21T05:37:10.564Z,10.00
2018-05-21T05:38:10.567Z,10.00
2018-05-21T05:39:10.634Z,22.00
2018-05-21T05:40:10.569Z,48.00
2018-05-21T05:41:10.635Z,62.00
2018-05-21T05:42:10.741Z,66.00
2018-05-21T05:43:10.576Z,68.00
2018-05-21T05:44:10.639Z,69.00
2018-05-21T05:45:10.639Z,70.00
2018-05-21T05:46:10.577Z,70.00
2018-05-21T05:47:10.574Z,71.00
2018-05-21T05:48:10.640Z,71.00
2018-05-21T05:49:10.572Z,71.00
2018-05-21T05:50:10.664Z,71.00
2018-05-21T05:51:10.578Z,72.00
2018-05-21T05:52:10.515Z,72.00
2018-05-21T05:53:10.619Z,71.00
2018-05-21T05:54:10.514Z,72.00
2018-05-21T05:55:10.627Z,72.00
2018-05-21T05:56:10.500Z,73.00
2018-05-21T05:57:10.627Z,73.00
2018-05-21T05:58:10.512Z,73.00
2018-05-21T05:59:10.521Z,73.00
2018-05-21T06:00:10.625Z,73.00
2018-05-21T06:01:10.605Z,73.00
2018-05-21T06:02:10.686Z,74.00
2018-05-21T06:03:10.683Z,74.00
2018-05-21T06:04:10.603Z,74.00
2018-05-21T06:05:10.557Z,73.00
2018-05-21T06:06:10.611Z,74.00
2018-05-21T06:07:10.629Z,74.00
2018-05-21T06:08:10.552Z,74.00
2018-05-21T06:09:10.622Z,75.00
2018-05-21T06:10:10.675Z,74.00
2018-05-21T06:11:10.732Z,74.00
2018-05-21T06:12:10.563Z,75.00
2018-05-21T06:13:10.600Z,75.00
2018-05-21T06:14:10.645Z,75.00
2018-05-21T06:15:10.564Z,75.00
2018-05-21T06:16:10.592Z,75.00
2018-05-21T06:17:10.543Z,75.00
2018-05-21T06:18:10.645Z,76.00
2018-05-21T06:19:10.653Z,77.00
2018-05-21T06:20:10.596Z,77.00
2018-05-21T06:21:10.644Z,76.00
2018-05-21T06:22:10.591Z,76.00
2018-05-21T06:23:10.600Z,76.00
2018-05-21T06:24:10.662Z,76.00
2018-05-21T06:25:10.600Z,77.00
2018-05-21T06:26:10.665Z,78.00
2018-05-21T06:27:10.593Z,77.00
2018-05-21T06:28:10.663Z,77.00
2018-05-21T06:29:10.594Z,78.00
2018-05-21T06:30:10.672Z,78.00
2018-05-21T06:31:10.604Z,79.00
2018-05-21T06:32:10.666Z,79.00
2018-05-21T06:33:10.669Z,78.00
2018-05-21T06:34:10.787Z,78.00
2018-05-21T06:35:10.604Z,79.00
2018-05-21T06:36:10.670Z,79.00
2018-05-21T06:37:10.609Z,78.00
2018-05-21T06:38:10.673Z,78.00
2018-05-21T06:39:10.606Z,79.00
2018-05-21T06:40:10.671Z,80.00
2018-05-21T06:41:10.681Z,80.00
2018-05-21T06:42:10.663Z,79.00
2018-05-21T06:43:10.673Z,79.00
2018-05-21T06:44:10.602Z,80.00
2018-05-21T06:45:10.610Z,79.00
2018-05-21T06:46:10.675Z,80.00
2018-05-21T06:47:10.565Z,80.00
2018-05-21T06:48:10.614Z,80.00
2018-05-21T06:49:10.582Z,80.00
2018-05-21T06:50:10.566Z,80.00
2018-05-21T06:51:10.670Z,80.00
2018-05-21T06:52:10.686Z,80.00
2018-05-21T06:53:10.683Z,80.00
2018-05-21T06:54:10.614Z,80.00
2018-05-21T06:55:10.616Z,81.00
2018-05-21T06:56:10.685Z,81.00
2018-05-21T06:57:10.622Z,81.00
2018-05-21T06:58:10.703Z,81.00
2018-05-21T06:59:10.644Z,81.00
2018-05-21T07:00:10.619Z,82.00
2018-05-21T07:01:10.613Z,82.00
2018-05-21T07:02:10.708Z,82.00
2018-05-21T07:03:10.658Z,81.00
2018-05-21T07:04:10.766Z,81.00
2018-05-21T07:05:10.728Z,81.00
2018-05-21T07:06:10.668Z,81.00
2018-05-21T07:07:10.650Z,81.00
2018-05-21T07:08:10.692Z,81.00
2018-05-21T07:09:10.710Z,82.00
2018-05-21T07:10:10.669Z,82.00
2018-05-21T07:11:10.768Z,82.00
2018-05-21T07:12:10.629Z,83.00
2018-05-21T07:13:10.695Z,82.00
2018-05-21T07:14:10.693Z,82.00
2018-05-21T07:15:10.696Z,82.00
2018-05-21T07:16:10.696Z,83.00
2018-05-21T07:17:10.695Z,83.00
2018-05-21T07:18:10.719Z,83.00
2018-05-21T07:19:10.698Z,83.00
2018-05-21T07:20:10.632Z,83.00
2018-05-21T07:21:10.703Z,83.00
2018-05-21T07:22:10.703Z,83.00
2018-05-21T07:23:10.699Z,82.00
2018-05-21T07:24:10.665Z,82.00
2018-05-21T07:25:10.646Z,82.00
2018-05-21T07:26:10.639Z,82.00
2018-05-21T07:27:10.704Z,82.00
2018-05-21T07:28:10.704Z,82.00
2018-05-21T07:29:10.708Z,82.00
2018-05-21T07:30:10.636Z,82.00
2018-05-21T07:31:10.641Z,82.00
2018-05-21T07:32:10.711Z,82.00
2018-05-21T07:33:10.684Z,82.00
2018-05-21T07:34:10.730Z,83.00
2018-05-21T07:35:10.723Z,83.00
2018-05-21T07:36:10.734Z,83.00
2018-05-21T07:37:10.608Z,83.00
2018-05-21T07:38:10.683Z,83.00
2018-05-21T07:39:10.617Z,82.00
2018-05-21T07:40:10.685Z,83.00
2018-05-21T07:41:10.733Z,83.00
2018-05-21T07:42:10.680Z,83.00
2018-05-21T07:43:10.716Z,83.00
2018-05-21T07:44:10.620Z,83.00
2018-05-21T07:45:10.685Z,83.00
2018-05-21T07:46:10.754Z,83.00
2018-05-21T07:47:10.750Z,83.00
2018-05-21T07:48:10.636Z,83.00
2018-05-21T07:49:10.676Z,83.00
2018-05-21T07:50:10.622Z,83.00
2018-05-21T07:51:10.698Z,82.00
2018-05-21T07:52:10.721Z,83.00
2018-05-21T07:53:10.585Z,83.00
2018-05-21T07:54:10.629Z,82.00
2018-05-21T07:55:10.706Z,83.00
2018-05-21T07:56:10.710Z,82.00
2018-05-21T07:57:10.711Z,82.00
2018-05-21T07:58:10.695Z,82.00
2018-05-21T07:59:10.722Z,82.00
2018-05-21T08:00:10.701Z,82.00
2018-05-21T08:01:10.591Z,82.00
2018-05-21T08:02:10.652Z,82.00
2018-05-21T08:03:10.673Z,82.00
2018-05-21T08:04:10.662Z,82.00
2018-05-21T08:05:10.686Z,82.00
2018-05-21T08:06:10.733Z,82.00
2018-05-21T08:07:10.741Z,82.00
2018-05-21T08:08:10.732Z,81.00
2018-05-21T08:09:10.737Z,82.00
2018-05-21T08:10:10.668Z,81.00
2018-05-21T08:11:10.736Z,81.00
2018-05-21T08:12:10.674Z,81.00
2018-05-21T08:13:10.731Z,81.00
2018-05-21T08:14:10.734Z,81.00
2018-05-21T08:15:10.736Z,81.00
2018-05-21T08:16:10.672Z,80.00
2018-05-21T08:17:10.664Z,80.00
2018-05-21T08:18:10.669Z,80.00
2018-05-21T08:19:10.702Z,80.00
2018-05-21T08:20:10.685Z,80.00
2018-05-21T08:21:10.738Z,80.00
2018-05-21T08:22:10.751Z,80.00
2018-05-21T08:23:10.716Z,80.00
2018-05-21T08:24:10.843Z,80.00
2018-05-21T08:25:10.780Z,80.00
2018-05-21T08:26:10.706Z,79.00
2018-05-21T08:27:10.752Z,79.00
2018-05-21T08:28:10.716Z,79.00
2018-05-21T08:29:10.726Z,79.00
2018-05-21T08:30:10.744Z,79.00
2018-05-21T08:31:10.728Z,79.00
2018-05-21T08:32:10.651Z,78.00
2018-05-21T08:33:10.782Z,78.00
2018-05-21T08:34:10.874Z,78.00
2018-05-21T08:35:10.711Z,78.00
2018-05-21T08:36:10.775Z,78.00
2018-05-21T08:37:10.780Z,78.00
2018-05-21T08:38:10.727Z,78.00
2018-05-21T08:39:10.724Z,78.00
2018-05-21T08:40:10.659Z,78.00
2018-05-21T08:41:10.773Z,78.00
2018-05-21T08:42:10.722Z,78.00
2018-05-21T08:43:10.708Z,78.00
2018-05-21T08:44:10.717Z,78.00
2018-05-21T08:45:10.688Z,77.00
2018-05-21T08:46:10.752Z,77.00
2018-05-21T08:47:10.791Z,77.00
2018-05-21T08:48:10.710Z,77.00
2018-05-21T08:49:10.712Z,77.00
2018-05-21T08:50:10.776Z,76.00
2018-05-21T08:51:10.714Z,76.00
2018-05-21T08:52:10.739Z,76.00
2018-05-21T08:53:10.757Z,76.00
2018-05-21T08:54:10.693Z,75.00
2018-05-21T08:55:10.812Z,75.00
2018-05-21T08:56:10.824Z,75.00
2018-05-21T08:57:10.762Z,75.00
2018-05-21T08:58:10.760Z,75.00
2018-05-21T08:59:10.730Z,75.00
2018-05-21T09:00:10.761Z,75.00
2018-05-21T09:01:10.757Z,74.00
2018-05-21T09:02:10.761Z,74.00
2018-05-21T09:03:10.773Z,75.00
2018-05-21T09:04:10.768Z,74.00
2018-05-21T09:05:10.743Z,74.00
2018-05-21T09:06:10.671Z,74.00
2018-05-21T09:07:10.737Z,74.00
2018-05-21T09:08:10.706Z,74.00
2018-05-21T09:09:10.746Z,73.00
2018-05-21T09:10:10.883Z,73.00
2018-05-21T09:11:10.789Z,73.00
2018-05-21T09:12:10.735Z,73.00
2018-05-21T09:13:10.754Z,73.00
2018-05-21T09:14:10.730Z,73.00
2018-05-21T09:15:10.815Z,73.00
2018-05-21T09:16:10.713Z,72.00
2018-05-21T09:17:10.811Z,71.00
2018-05-21T09:18:10.697Z,73.00
2018-05-21T09:19:10.743Z,71.00
2018-05-21T09:20:10.739Z,71.00
2018-05-21T09:21:10.800Z,71.00
2018-05-21T09:22:10.808Z,71.00
2018-05-21T09:23:10.743Z,71.00
2018-05-21T09:24:10.762Z,71.00
2018-05-21T09:25:10.734Z,71.00
2018-05-21T09:26:10.843Z,71.00
2018-05-21T09:27:10.689Z,71.00
2018-05-21T09:28:10.778Z,71.00
2018-05-21T09:29:10.691Z,70.00
2018-05-21T09:30:10.759Z,70.00
2018-05-21T09:31:10.693Z,70.00
2018-05-21T09:32:10.755Z,69.00
2018-05-21T09:33:10.785Z,69.00
2018-05-21T09:34:10.782Z,68.00
2018-05-21T09:35:10.729Z,69.00
2018-05-21T09:36:10.747Z,69.00
2018-05-21T09:37:10.815Z,69.00
2018-05-21T09:38:10.789Z,68.00
2018-05-21T09:39:10.789Z,68.00
2018-05-21T09:40:10.761Z,68.00
2018-05-21T09:41:10.793Z,67.00
2018-05-21T09:42:10.728Z,67.00
2018-05-21T09:43:10.781Z,67.00
2018-05-21T09:44:10.786Z,67.00
2018-05-21T09:45:10.787Z,68.00
2018-05-21T09:46:10.788Z,67.00
2018-05-21T09:47:10.783Z,66.00
2018-05-21T09:48:10.786Z,66.00
2018-05-21T09:49:10.700Z,65.00
2018-05-21T09:50:10.668Z,65.00
2018-05-21T09:51:10.788Z,65.00
2018-05-21T09:52:10.698Z,65.00
2018-05-21T09:53:10.799Z,64.00
2018-05-21T09:54:10.798Z,65.00
2018-05-21T09:55:10.806Z,64.00
2018-05-21T09:56:10.730Z,65.00
2018-05-21T09:57:10.806Z,65.00
2018-05-21T09:58:10.866Z,63.00
2018-05-21T09:59:10.801Z,63.00
2018-05-21T10:00:10.801Z,63.00
2018-05-21T10:01:10.742Z,63.00
2018-05-21T10:02:10.808Z,63.00
2018-05-21T10:03:10.708Z,63.00
2018-05-21T10:04:10.764Z,62.00
2018-05-21T10:05:10.835Z,62.00
2018-05-21T10:06:10.809Z,62.00
2018-05-21T10:07:10.788Z,59.00
2018-05-21T10:08:10.836Z,61.00
2018-05-21T10:09:10.767Z,61.00
2018-05-21T10:10:10.842Z,61.00
2018-05-21T10:11:10.787Z,61.00
2018-05-21T10:12:10.759Z,61.00
2018-05-21T10:13:10.792Z,61.00
2018-05-21T10:14:10.780Z,60.00
2018-05-21T10:15:10.835Z,60.00
2018-05-21T10:16:10.831Z,59.00
2018-05-21T10:17:10.852Z,60.00
2018-05-21T10:18:10.786Z,59.00
2018-05-21T10:19:10.841Z,59.00
2018-05-21T10:20:10.834Z,59.00
2018-05-21T10:21:10.725Z,59.00
2018-05-21T10:22:10.793Z,59.00
2018-05-21T10:23:10.818Z,59.00
2018-05-21T10:24:10.752Z,58.00
2018-05-21T10:25:10.821Z,58.00
2018-05-21T10:26:10.812Z,57.00
2018-05-21T10:27:10.757Z,57.00
2018-05-21T10:28:10.836Z,57.00
2018-05-21T10:29:10.831Z,57.00
2018-05-21T10:30:10.754Z,57.00
2018-05-21T10:31:10.828Z,56.00
2018-05-21T10:32:10.823Z,56.00
2018-05-21T10:33:10.831Z,56.00
2018-05-21T10:34:10.759Z,56.00
2018-05-21T10:35:10.758Z,56.00
2018-05-21T10:36:10.831Z,55.00
2018-05-21T10:37:10.787Z,55.00
2018-05-21T10:38:10.831Z,55.00
2018-05-21T10:39:10.828Z,55.00
2018-05-21T10:40:10.763Z,54.00
2018-05-21T10:41:10.831Z,54.00
2018-05-21T10:42:10.832Z,54.00
2018-05-21T10:43:10.867Z,53.00
2018-05-21T10:44:10.740Z,53.00
2018-05-21T10:45:10.872Z,53.00
2018-05-21T10:46:10.754Z,53.00
2018-05-21T10:47:10.861Z,52.00
2018-05-21T10:48:10.807Z,52.00
2018-05-21T10:49:10.865Z,52.00
2018-05-21T10:50:10.875Z,52.00
2018-05-21T10:51:10.807Z,51.00
2018-05-21T10:52:10.809Z,51.00
2018-05-21T10:53:10.837Z,51.00
2018-05-21T10:54:10.787Z,51.00
2018-05-21T10:55:10.769Z,51.00
2018-05-21T10:56:10.859Z,50.00
2018-05-21T10:57:10.840Z,50.00
2018-05-21T10:58:10.780Z,50.00
2018-05-21T10:59:10.840Z,49.00
2018-05-21T11:00:10.840Z,48.00
2018-05-21T11:01:10.777Z,48.00
2018-05-21T11:02:10.849Z,48.00
2018-05-21T11:03:10.768Z,48.00
2018-05-21T11:04:10.839Z,48.00
2018-05-21T11:05:10.862Z,48.00
2018-05-21T11:06:10.867Z,47.00
2018-05-21T11:07:10.883Z,47.00
2018-05-21T11:08:10.806Z,47.00
2018-05-21T11:09:10.886Z,46.00
2018-05-21T11:10:10.850Z,46.00
2018-05-21T11:11:10.785Z,46.00
2018-05-21T11:12:10.868Z,46.00
2018-05-21T11:13:10.852Z,46.00
2018-05-21T11:14:10.810Z,45.00
2018-05-21T11:15:10.874Z,45.00
2018-05-21T11:16:10.771Z,45.00
2018-05-21T11:17:10.850Z,45.00
2018-05-21T11:18:10.833Z,44.00
2018-05-21T11:19:10.792Z,44.00
2018-05-21T11:20:10.760Z,44.00
2018-05-21T11:21:10.778Z,44.00
2018-05-21T11:22:10.839Z,44.00
2018-05-21T11:23:10.821Z,44.00
2018-05-21T11:24:10.819Z,43.00
2018-05-21T11:25:10.886Z,43.00
2018-05-21T11:26:10.780Z,43.00
2018-05-21T11:27:10.800Z,42.00
2018-05-21T11:28:10.834Z,42.00
2018-05-21T11:29:10.894Z,42.00
2018-05-21T11:30:10.841Z,42.00
2018-05-21T11:31:10.830Z,42.00
2018-05-21T11:32:10.833Z,41.00
2018-05-21T11:33:10.864Z,42.00
2018-05-21T11:34:10.803Z,41.00
2018-05-21T11:35:10.799Z,42.00
2018-05-21T11:36:10.797Z,41.00
2018-05-21T11:37:10.862Z,42.00
2018-05-21T11:38:10.865Z,41.00
2018-05-21T11:39:10.881Z,41.00
2018-05-21T11:40:10.800Z,41.00
2018-05-21T11:41:10.805Z,41.00
2018-05-21T11:42:10.801Z,41.00
2018-05-21T11:43:10.775Z,41.00
2018-05-21T11:44:10.899Z,41.00
2018-05-21T11:45:10.680Z,41.00
2018-05-21T11:46:10.894Z,41.00
2018-05-21T11:47:10.913Z,40.00
2018-05-21T11:48:10.847Z,40.00
2018-05-21T11:49:10.847Z,40.00
2018-05-21T11:50:10.907Z,40.00
2018-05-21T11:51:10.853Z,40.00
2018-05-21T11:52:10.834Z,40.00
2018-05-21T11:53:10.857Z,40.00
2018-05-21T11:54:10.828Z,40.00
2018-05-21T11:55:10.774Z,40.00
2018-05-21T11:56:10.867Z,40.00
2018-05-21T11:57:10.829Z,39.00
2018-05-21T11:58:10.857Z,40.00
2018-05-21T11:59:10.812Z,40.00
2018-05-21T12:00:10.830Z,40.00
2018-05-21T12:01:10.854Z,40.00
2018-05-21T12:02:10.808Z,40.00
2018-05-21T12:03:10.911Z,40.00
2018-05-21T12:04:10.910Z,39.00
2018-05-21T12:05:10.880Z,39.00
2018-05-21T12:06:10.845Z,40.00
2018-05-21T12:07:10.850Z,39.00
2018-05-21T12:08:10.888Z,39.00
2018-05-21T12:09:10.911Z,39.00
2018-05-21T12:10:10.863Z,39.00
2018-05-21T12:11:10.790Z,39.00
2018-05-21T12:12:10.856Z,39.00
2018-05-21T12:13:10.794Z,39.00
2018-05-21T12:14:10.843Z,39.00
2018-05-21T12:15:10.887Z,39.00
2018-05-21T12:16:10.874Z,39.00
2018-05-21T12:17:10.880Z,39.00
2018-05-21T12:18:10.819Z,39.00
2018-05-21T12:19:10.772Z,38.00
2018-05-21T12:20:10.778Z,38.00
2018-05-21T12:21:10.827Z,38.00
2018-05-21T12:22:10.888Z,38.00
2018-05-21T12:23:10.795Z,38.00
2018-05-21T12:24:10.793Z,38.00
2018-05-21T12:25:10.872Z,38.00
2018-05-21T12:26:10.757Z,38.00
2018-05-21T12:27:10.852Z,38.00
2018-05-21T12:28:10.856Z,38.00
2018-05-21T12:29:10.789Z,38.00
2018-05-21T12:30:10.855Z,38.00
2018-05-21T12:31:10.760Z,38.00
2018-05-21T12:32:10.846Z,38.00
2018-05-21T12:33:10.893Z,38.00
2018-05-21T12:34:10.804Z,38.00
2018-05-21T12:35:10.893Z,38.00
2018-05-21T12:36:10.776Z,38.00
2018-05-21T12:37:10.901Z,38.00
2018-05-21T12:38:10.835Z,38.00
2018-05-21T12:39:10.845Z,37.00
2018-05-21T12:40:10.835Z,37.00
2018-05-21T12:41:10.900Z,38.00
2018-05-21T12:42:10.906Z,37.00
2018-05-21T12:43:10.895Z,37.00
2018-05-21T12:44:10.896Z,37.00
2018-05-21T12:45:10.840Z,37.00
2018-05-21T12:46:10.872Z,37.00
2018-05-21T12:47:10.861Z,37.00
2018-05-21T12:48:10.894Z,37.00
2018-05-21T12:49:10.898Z,37.00
2018-05-21T12:50:10.909Z,37.00
2018-05-21T12:51:10.911Z,36.00
2018-05-21T12:52:10.863Z,36.00
2018-05-21T12:53:10.917Z,36.00
2018-05-21T12:54:10.945Z,36.00
2018-05-21T12:55:10.817Z,36.00
2018-05-21T12:56:10.913Z,36.00
2018-05-21T12:57:10.890Z,36.00
2018-05-21T12:58:10.939Z,36.00
2018-05-21T12:59:10.895Z,36.00
2018-05-21T13:00:10.937Z,36.00
2018-05-21T13:01:10.947Z,36.00
2018-05-21T13:02:10.959Z,35.00
2018-05-21T13:03:10.872Z,35.00